Weather at Arlington Municipal Airport

Public forecast

Using degrees Fahrenheit for public forecast. Weather courtesy of forecast.io.

Current aviation weather report (METAR) for Arlington Municipal Airport

Report is more than 6 hours old.

2024/06/24 20:53 (retrieved 6 hours ago)

KGKY 242053Z 18007KT 10SM FEW065 34/21 A2991 RMK AO2 SLP118 T03390206 56017

Aviation forecast (TAF) for Arlington Municipal Airport

2024/06/24 21:54 Ammendment (retrieved 5 hours ago)

TAF AMD KGKY 242050Z 2421/2518 17009KT P6SM SCT060